Observations for LIVERPOOL AIRPORT, United Kingdom (EGGP)

EGGP 220820Z 30010KT 9999 VCSH BKN005 BKN018 17/16 Q1016
EGGP 220750Z 28010KT 8000 VCSH BKN005 BKN020 17/16 Q1016
EGGP 220720Z 28009KT 9000 VCSH SCT008 BKN020 17/16 Q1016
EGGP 220650Z 28010KT 9999 SCT014 BKN024 17/15 Q1016 
EGGP 220620Z 26006KT 230V300 9999 SCT014 BKN022 17/15 Q1016 
EGGP 220550Z VRB02KT 9999 SCT018 BKN022 18/15 Q1016 
EGGP 220520Z 31004KT 9999 FEW010 SCT018 BKN022 17/15 Q1015  
EGGP 220450Z 27006KT 9999 FEW010 SCT018 BKN022 17/15 Q1015  
EGGP 220420Z 26007KT 9999 SCT022 BKN028 16/14 Q1015 
EGGP 220350Z 26006KT 9999 SCT022 BKN028 16/14 Q1015 
EGGP 220320Z 26005KT 9999 SCT022 BKN028 16/14 Q1015 
EGGP 220250Z 29005KT 9999 SCT022 BKN028 17/14 Q1015 
EGGP 220220Z 27004KT 9999 SCT028 BKN032 16/13 Q1015 
EGGP 220150Z 27005KT 9999 FEW038 16/14 Q1016
EGGP 220120Z 26005KT 9999 FEW038 16/14 Q1016
EGGP 220050Z 29005KT 9999 FEW038 15/12 Q1016
EGGP 220020Z 30004KT 270V340 9999 FEW042 16/13 Q1016
EGGP 212350Z 29007KT CAVOK 16/12 Q1016  
EGGP 212320Z 29006KT CAVOK 16/12 Q1016  
EGGP 212250Z 30008KT CAVOK 16/13 Q1016  
EGGP 212220Z 29007KT CAVOK 16/12 Q1016  
EGGP 212150Z 30006KT CAVOK 16/13 Q1016  
EGGP 212120Z 30007KT 9999 SCT045 16/12 Q1016
EGGP 212050Z 29004KT 260V330 9999 FEW012 SCT022 16/12 Q1016 
EGGP 212020Z 31006KT 9999 FEW012 BKN018 16/13 Q1016 
EGGP 211950Z 31007KT 9999 SCT017 16/12 Q1016
EGGP 211920Z 30009KT 9999 BKN017 16/12 Q1016
EGGP 211850Z 29008KT 9999 FEW017 17/13 Q1016
EGGP 211820Z 30009KT 9999 FEW018 17/13 Q1016
EGGP 211750Z 29009KT 260V320 9999 SCT016 17/12 Q1015
EGGP 211720Z 29009KT 9999 SCT016 17/13 Q1015
EGGP 211650Z 30009KT 9999 BKN015 17/13 Q1015
EGGP 211620Z 29011KT 9999 BKN018 17/13 Q1015
EGGP 211550Z 29009KT 9999 SCT018 18/14 Q1016
EGGP 211520Z 29011KT 9999 FEW014 SCT020 18/13 Q1016 
EGGP 211450Z 30009KT 280V340 9999 VCSH SCT013 BKN018 18/14 Q1016
EGGP 211420Z 28013KT 9999 VCSH SCT013 BKN022 17/13 Q1016
EGGP 211350Z 28011KT 9999 BKN013 18/15 Q1016
EGGP 211320Z 29011KT 9999 BKN013 19/15 Q1015
EGGP 211250Z 29007KT 9999 SCT011 BKN023 19/16 Q1015 
EGGP 211220Z 29010KT 9999 FEW012 SCT022 BKN025 18/15 Q1015  
EGGP 211150Z 29011KT 9999 SCT015 BKN025 18/14 Q1015 
EGGP 211120Z 32007KT 290V360 9999 SCT015 BKN027 18/15 Q1015 
EGGP 211050Z 30006KT 9999 SCT015 BKN027 18/15 Q1015 
EGGP 211020Z 30005KT 9999 BKN027 18/14 Q1015
EGGP 210950Z VRB03KT 9999 SCT025 BKN028 18/15 Q1015 
EGGP 210920Z 23004KT 200V300 9999 BKN023 18/14 Q1015
EGGP 210850Z 25004KT 210V300 9999 SCT021 BKN029 18/14 Q1015 
EGGP 210820Z VRB03KT 9999 SCT022 BKN030 17/14 Q1015 
EGGP 210750Z VRB03KT 9000 FEW009 SCT020 BKN032 17/14 Q1014